createdAt,value
2022-08-30T00:01:32.615Z,100032.63
2022-08-30T00:04:01.476Z,100031.38
2022-08-30T00:06:31.016Z,100028.94
2022-08-30T00:08:59.785Z,100032.38
2022-08-30T00:11:28.227Z,100034.03
2022-08-30T00:13:56.521Z,100030.13
2022-08-30T00:16:24.695Z,100031.66
2022-08-30T00:18:52.534Z,100025.25
2022-08-30T00:21:19.891Z,100034.94
2022-08-30T00:23:47.208Z,100031.59
2022-08-30T00:26:14.813Z,100024.63
2022-08-30T00:28:42.263Z,100028.38
2022-08-30T00:31:10.515Z,100024.78
2022-08-30T00:33:42.762Z,100028.38
2022-08-30T00:36:10.155Z,100029.19
2022-08-30T00:38:37.488Z,100029.59
2022-08-30T00:41:05.203Z,100030.28
2022-08-30T00:43:34.838Z,100037.16
2022-08-30T00:46:08.246Z,100028.38
2022-08-30T00:48:39.050Z,100031.84
2022-08-30T00:51:10.051Z,100030.28
2022-08-30T00:53:39.680Z,100032.16
2022-08-30T00:56:07.317Z,100032.94
2022-08-30T00:58:37.783Z,100037.47
2022-08-30T01:01:06.636Z,100037.06
2022-08-30T01:03:34.671Z,100032.69
2022-08-30T01:06:03.173Z,100029.19
2022-08-30T01:08:30.801Z,100031.84
2022-08-30T01:10:58.485Z,100034.50
2022-08-30T01:13:27.275Z,100025.56
2022-08-30T01:15:55.865Z,100029.88
2022-08-30T01:18:23.996Z,100023.78
2022-08-30T01:21:03.583Z,100023.87
2022-08-30T01:23:32.452Z,100023.41
2022-08-30T01:26:00.495Z,100021.22
2022-08-30T01:28:29.194Z,100023.25
2022-08-30T01:30:56.914Z,100018.78
2022-08-30T01:33:24.811Z,100030.63
2022-08-30T01:35:56.329Z,100020.28
2022-08-30T01:38:27.905Z,100021.16
2022-08-30T01:41:08.548Z,100019.78
2022-08-30T01:43:36.786Z,100021.50
2022-08-30T01:46:05.272Z,100012.97
2022-08-30T01:48:34.138Z,100016.84
2022-08-30T01:51:03.108Z,100015.25
2022-08-30T01:53:30.628Z,100013.56
2022-08-30T01:55:58.260Z,100012.06
2022-08-30T01:58:25.866Z,100012.22
2022-08-30T02:00:53.313Z,100005.34
2022-08-30T02:03:21.079Z,100003.88
2022-08-30T02:05:49.123Z,100012.72
2022-08-30T02:08:16.573Z,100005.97
2022-08-30T02:10:44.612Z,100006.91
2022-08-30T02:13:12.237Z,100005.84
2022-08-30T02:15:41.630Z,100005.19
2022-08-30T02:18:10.691Z,100003.09
2022-08-30T02:20:39.851Z,100006.19
2022-08-30T02:23:07.200Z,100001.12
2022-08-30T02:25:34.889Z,100001.03
2022-08-30T02:28:02.572Z,100000.59
2022-08-30T02:30:29.948Z,99998.22
2022-08-30T02:32:57.577Z,99999.97
2022-08-30T02:35:25.500Z,100008.16
2022-08-30T02:37:52.983Z,100012.47
2022-08-30T02:40:22.138Z,100016.00
2022-08-30T02:42:49.817Z,100007.41
2022-08-30T02:45:17.199Z,100007.41
2022-08-30T02:47:47.208Z,100009.19
2022-08-30T02:50:15.319Z,100011.59
2022-08-30T02:52:42.718Z,100009.87
2022-08-30T02:55:12.592Z,100012.06
2022-08-30T02:57:40.206Z,100012.91
2022-08-30T03:00:13.932Z,100007.66
2022-08-30T03:02:41.880Z,100005.34
2022-08-30T03:05:12.924Z,100005.56
2022-08-30T03:07:41.585Z,100006.03
2022-08-30T03:10:10.881Z,100007.84
2022-08-30T03:12:38.303Z,100006.09
2022-08-30T03:15:06.832Z,100005.81
2022-08-30T03:17:34.539Z,100012.97
2022-08-30T03:20:02.242Z,100010.41
2022-08-30T03:22:29.911Z,100023.03
2022-08-30T03:25:01.608Z,100023.19
2022-08-30T03:27:29.561Z,100021.78
2022-08-30T03:29:57.196Z,100024.38
2022-08-30T03:32:24.604Z,100028.06
2022-08-30T03:34:51.932Z,100036.00
2022-08-30T03:37:23.252Z,100030.22
2022-08-30T03:39:53.075Z,100040.28
2022-08-30T03:42:20.714Z,100045.66
2022-08-30T03:44:50.556Z,100041.72
2022-08-30T03:47:17.929Z,100048.09
2022-08-30T03:49:45.612Z,100043.87
2022-08-30T03:52:12.945Z,100052.69
2022-08-30T03:54:40.424Z,100046.59
2022-08-30T03:57:08.035Z,100053.97
2022-08-30T03:59:40.692Z,100048.47
2022-08-30T04:02:08.335Z,100044.88
2022-08-30T04:04:35.975Z,100051.31
2022-08-30T04:07:03.649Z,100049.69
2022-08-30T04:09:31.421Z,100058.50
2022-08-30T04:12:00.171Z,100053.50
2022-08-30T04:14:27.508Z,100050.69
2022-08-30T04:16:55.173Z,100062.00
2022-08-30T04:19:22.803Z,100070.41
2022-08-30T04:21:50.230Z,100072.97
2022-08-30T04:24:17.810Z,100080.59
2022-08-30T04:26:45.442Z,100087.47
2022-08-30T04:29:16.450Z,100086.19
2022-08-30T04:31:44.769Z,100088.88
2022-08-30T04:34:13.587Z,100093.94
2022-08-30T04:36:41.165Z,100094.06
2022-08-30T04:39:08.776Z,100105.41
2022-08-30T04:41:37.761Z,100105.69
2022-08-30T04:44:05.124Z,100109.06
2022-08-30T04:46:34.688Z,100114.41
2022-08-30T04:49:02.731Z,100111.56
2022-08-30T04:51:30.163Z,100113.72
2022-08-30T04:53:57.507Z,100119.69
2022-08-30T04:56:25.315Z,100109.72
2022-08-30T04:58:55.004Z,100115.63
2022-08-30T05:01:26.112Z,100123.44
2022-08-30T05:03:55.209Z,100119.38
2022-08-30T05:06:23.959Z,100122.91
2022-08-30T05:08:52.791Z,100131.38
2022-08-30T05:11:21.049Z,100121.53
2022-08-30T05:13:49.735Z,100130.28
2022-08-30T05:16:20.232Z,100128.91
2022-08-30T05:18:49.320Z,100137.12
2022-08-30T05:21:19.878Z,100125.16
2022-08-30T05:23:47.910Z,100131.34
2022-08-30T05:26:18.370Z,100136.34
2022-08-30T05:28:46.096Z,100126.31
2022-08-30T05:31:16.502Z,100129.66
2022-08-30T05:33:45.067Z,100130.44
2022-08-30T05:36:14.036Z,100122.88
2022-08-30T05:38:41.502Z,100121.66
2022-08-30T05:41:10.917Z,100129.38
2022-08-30T05:43:39.072Z,100126.34
2022-08-30T05:46:12.646Z,100127.75
2022-08-30T05:48:40.762Z,100127.28
2022-08-30T05:51:09.467Z,100128.78
2022-08-30T05:53:37.420Z,100132.06
2022-08-30T05:56:08.221Z,100133.31
2022-08-30T05:58:36.156Z,100132.19
2022-08-30T06:01:04.717Z,100137.78
2022-08-30T06:03:32.939Z,100134.94
2022-08-30T06:06:00.936Z,100133.31
2022-08-30T06:08:28.280Z,100138.06
2022-08-30T06:10:55.893Z,100140.84
2022-08-30T06:13:23.493Z,100141.59
2022-08-30T06:15:52.571Z,100143.38
2022-08-30T06:18:23.520Z,100143.25
2022-08-30T06:20:56.153Z,100146.88
2022-08-30T06:23:23.857Z,100148.06
2022-08-30T06:25:51.174Z,100144.59
2022-08-30T06:28:18.582Z,100145.53
2022-08-30T06:30:46.348Z,100131.09
2022-08-30T06:33:13.699Z,100147.12
2022-08-30T06:35:56.701Z,100139.91
2022-08-30T06:38:26.606Z,100131.69
2022-08-30T06:40:54.165Z,100139.69
2022-08-30T06:43:21.574Z,100144.28
2022-08-30T06:45:49.193Z,100137.78
2022-08-30T06:48:16.678Z,100141.63
2022-08-30T06:50:44.897Z,100141.81
2022-08-30T06:53:12.801Z,100133.88
2022-08-30T06:55:40.435Z,100143.97
2022-08-30T06:58:07.759Z,100138.81
2022-08-30T07:00:35.460Z,100149.94
2022-08-30T07:03:04.085Z,100153.59
2022-08-30T07:05:32.815Z,100144.12
2022-08-30T07:08:00.432Z,100158.53
2022-08-30T07:10:27.763Z,100151.84
2022-08-30T07:12:55.137Z,100154.63
2022-08-30T07:15:23.014Z,100163.25
2022-08-30T07:18:09.282Z,100161.12
2022-08-30T07:20:40.359Z,100159.53
2022-08-30T07:23:09.298Z,100156.69
2022-08-30T07:25:38.030Z,100155.47
2022-08-30T07:28:06.243Z,100168.56
2022-08-30T07:30:34.491Z,100152.87
2022-08-30T07:33:02.376Z,100159.94
2022-08-30T07:35:29.764Z,100162.94
2022-08-30T07:37:57.476Z,100167.62
2022-08-30T07:40:25.497Z,100162.09
2022-08-30T07:42:53.132Z,100163.00
2022-08-30T07:45:20.818Z,100159.03
2022-08-30T07:47:48.435Z,100167.22
2022-08-30T07:50:15.872Z,100163.94
2022-08-30T07:52:43.217Z,100156.53
2022-08-30T07:55:10.868Z,100161.56
2022-08-30T07:57:38.319Z,100163.56
2022-08-30T08:00:06.465Z,100168.28
2022-08-30T08:02:40.688Z,100159.37
2022-08-30T08:05:12.805Z,100161.03
2022-08-30T08:07:44.051Z,100159.94
2022-08-30T08:10:11.759Z,100156.81
2022-08-30T08:12:39.897Z,100161.84
2022-08-30T08:15:08.895Z,100168.09
2022-08-30T08:17:36.679Z,100161.94
2022-08-30T08:20:04.745Z,100158.41
2022-08-30T08:22:32.094Z,100167.62
2022-08-30T08:24:59.804Z,100163.09
2022-08-30T08:27:27.145Z,100160.13
2022-08-30T08:29:54.805Z,100160.97
2022-08-30T08:32:22.403Z,100167.44
2022-08-30T08:34:49.729Z,100171.12
2022-08-30T08:37:18.399Z,100162.37
2022-08-30T08:39:48.588Z,100171.69
2022-08-30T08:42:37.100Z,100162.03
2022-08-30T08:45:14.268Z,100156.38
2022-08-30T08:47:54.363Z,100162.94
2022-08-30T08:50:23.288Z,100160.03
2022-08-30T08:53:20.451Z,100163.34
2022-08-30T08:55:52.788Z,100169.25
2022-08-30T08:58:32.254Z,100161.53
2022-08-30T09:01:00.154Z,100164.97
2022-08-30T09:03:29.352Z,100157.47
2022-08-30T09:05:58.194Z,100158.94
2022-08-30T09:08:27.242Z,100151.59
2022-08-30T09:11:04.801Z,100162.59
2022-08-30T09:13:32.705Z,100154.56
2022-08-30T09:16:00.760Z,100154.34
2022-08-30T09:18:50.100Z,100151.53
2022-08-30T09:21:25.295Z,100148.50
2022-08-30T09:24:01.630Z,100140.69
2022-08-30T09:26:36.850Z,100142.06
2022-08-30T09:29:05.753Z,100136.44
2022-08-30T09:31:48.781Z,100142.47
2022-08-30T09:34:20.316Z,100133.75
2022-08-30T09:36:52.280Z,100134.66
2022-08-30T09:39:21.221Z,100127.75
2022-08-30T09:41:52.924Z,100137.38
2022-08-30T09:44:24.579Z,100124.78
2022-08-30T09:46:54.409Z,100121.84
2022-08-30T09:49:38.695Z,100114.66
2022-08-30T09:52:11.910Z,100122.44
2022-08-30T09:55:02.178Z,100122.09
2022-08-30T09:57:43.006Z,100115.66
2022-08-30T10:00:24.730Z,100117.75
2022-08-30T10:03:36.321Z,100108.47
2022-08-30T10:06:37.290Z,100109.84
2022-08-30T10:09:11.038Z,100111.13
2022-08-30T10:11:56.331Z,100107.25
2022-08-30T10:14:33.182Z,100112.13
2022-08-30T10:17:41.763Z,100108.69
2022-08-30T10:20:16.819Z,100110.56
2022-08-30T10:23:01.191Z,100098.97
2022-08-30T10:25:45.312Z,100090.41
2022-08-30T10:28:40.711Z,100095.47
2022-08-30T10:31:15.078Z,100101.47
2022-08-30T10:33:46.735Z,100097.03
2022-08-30T10:36:15.361Z,100087.50
2022-08-30T10:38:48.657Z,100091.03
2022-08-30T10:41:19.171Z,100092.59
2022-08-30T10:43:54.751Z,100078.31
2022-08-30T10:46:29.535Z,100085.72
2022-08-30T10:48:59.259Z,100081.37
2022-08-30T10:51:33.479Z,100076.94
2022-08-30T10:54:18.581Z,100075.88
2022-08-30T10:56:51.343Z,100069.25
2022-08-30T10:59:19.184Z,100064.81
2022-08-30T11:02:17.989Z,100066.41
2022-08-30T11:05:06.899Z,100057.56
2022-08-30T11:07:49.266Z,100063.25
2022-08-30T11:10:43.220Z,100061.66
2022-08-30T11:13:26.441Z,100062.41
2022-08-30T11:15:58.433Z,100059.53
2022-08-30T11:18:26.626Z,100051.66
2022-08-30T11:20:56.404Z,100052.00
2022-08-30T11:23:29.105Z,100044.50
2022-08-30T11:26:06.337Z,100037.94
2022-08-30T11:28:38.409Z,100044.69
2022-08-30T11:31:07.641Z,100033.37
2022-08-30T11:34:01.287Z,100037.09
2022-08-30T11:36:28.946Z,100032.03
2022-08-30T11:39:09.399Z,100027.37
2022-08-30T11:41:43.861Z,100031.91
2022-08-30T11:44:27.612Z,100035.03
2022-08-30T11:47:01.032Z,100017.44
2022-08-30T11:49:40.247Z,100023.19
2022-08-30T11:52:28.866Z,100010.75
2022-08-30T11:55:22.757Z,100012.88
2022-08-30T11:57:59.542Z,100007.13
2022-08-30T12:00:42.046Z,100006.09
2022-08-30T12:03:16.027Z,100005.31
2022-08-30T12:05:44.236Z,100000.41
2022-08-30T12:08:20.751Z,99998.69
2022-08-30T12:10:51.712Z,99995.34
2022-08-30T12:13:38.113Z,99992.91
2022-08-30T12:16:16.312Z,99992.38
2022-08-30T12:19:00.179Z,99991.72
2022-08-30T12:21:43.601Z,99987.81
2022-08-30T12:24:40.010Z,99990.78
2022-08-30T12:27:32.615Z,99979.56
2022-08-30T12:30:05.831Z,99969.75
2022-08-30T12:32:33.747Z,99968.38
2022-08-30T12:35:03.904Z,99968.78
2022-08-30T12:37:37.445Z,99960.16
2022-08-30T12:40:11.290Z,99966.09
2022-08-30T12:42:53.789Z,99965.38
2022-08-30T12:45:24.817Z,99947.22
2022-08-30T12:48:01.935Z,99946.78
2022-08-30T12:50:35.501Z,99946.22
2022-08-30T12:53:13.550Z,99951.34
2022-08-30T12:56:00.850Z,99934.75
2022-08-30T12:58:38.944Z,99928.47
2022-08-30T13:01:28.195Z,99928.34
2022-08-30T13:04:00.894Z,99932.53
2022-08-30T13:06:48.721Z,99927.09
2022-08-30T13:09:39.884Z,99929.72
2022-08-30T13:12:22.742Z,99920.13
2022-08-30T13:14:52.398Z,99929.00
2022-08-30T13:17:21.449Z,99919.75
2022-08-30T13:20:20.570Z,99918.91
2022-08-30T13:23:09.589Z,99913.69
2022-08-30T13:25:38.456Z,99904.34
2022-08-30T13:28:07.384Z,99911.00
2022-08-30T13:30:34.764Z,99908.75
2022-08-30T13:33:02.611Z,99902.09
2022-08-30T13:35:31.409Z,99900.97
2022-08-30T13:38:01.323Z,99898.78
2022-08-30T13:40:28.692Z,99893.94
2022-08-30T13:42:58.563Z,99891.59
2022-08-30T13:45:41.953Z,99898.03
2022-08-30T13:48:11.329Z,99886.16
2022-08-30T13:50:39.581Z,99886.25
2022-08-30T13:53:09.219Z,99878.28
2022-08-30T13:55:38.311Z,99878.84
2022-08-30T13:58:05.693Z,99885.16
2022-08-30T14:00:37.844Z,99887.34
2022-08-30T14:03:05.893Z,99881.13
2022-08-30T14:06:04.722Z,99877.19
2022-08-30T14:08:49.830Z,99873.47
2022-08-30T14:11:21.214Z,99869.81
2022-08-30T14:16:43.131Z,99860.22
2022-08-30T14:19:12.440Z,99866.34
2022-08-30T14:21:39.835Z,99862.13
2022-08-30T14:24:07.439Z,99863.75
2022-08-30T14:26:48.392Z,99852.56
2022-08-30T14:29:18.979Z,99856.56
2022-08-30T14:31:48.600Z,99854.72
2022-08-30T14:34:16.705Z,99860.41
2022-08-30T14:36:45.613Z,99859.81
2022-08-30T14:39:17.996Z,99847.81
2022-08-30T14:41:55.591Z,99849.19
2022-08-30T14:44:24.669Z,99846.09
2022-08-30T14:46:52.678Z,99846.72
2022-08-30T14:49:20.740Z,99850.06
2022-08-30T14:51:49.440Z,99842.44
2022-08-30T14:54:19.547Z,99848.28
2022-08-30T14:56:47.433Z,99855.13
2022-08-30T14:59:15.332Z,99853.56
2022-08-30T15:01:45.225Z,99849.22
2022-08-30T15:04:14.289Z,99838.97
2022-08-30T15:06:44.283Z,99834.25
2022-08-30T15:09:14.803Z,99841.84
2022-08-30T15:11:47.055Z,99847.94
2022-08-30T15:14:16.292Z,99847.78
2022-08-30T15:16:44.325Z,99845.59
2022-08-30T15:19:12.595Z,99841.31
2022-08-30T15:21:42.899Z,99841.63
2022-08-30T15:24:15.027Z,99841.13
2022-08-30T15:26:44.114Z,99841.69
2022-08-30T15:29:13.516Z,99836.88
2022-08-30T15:31:41.904Z,99828.94
2022-08-30T15:34:11.100Z,99832.16
2022-08-30T15:36:39.025Z,99837.03
2022-08-30T15:39:07.206Z,99839.38
2022-08-30T15:41:37.787Z,99834.97
2022-08-30T15:44:07.706Z,99833.53
2022-08-30T15:46:41.685Z,99840.34
2022-08-30T15:49:23.323Z,99840.72
2022-08-30T15:51:54.325Z,99839.28
2022-08-30T15:54:23.617Z,99835.13
2022-08-30T15:56:58.801Z,99833.91
2022-08-30T15:59:28.305Z,99836.84
2022-08-30T16:01:56.118Z,99836.38
2022-08-30T16:04:25.701Z,99844.41
2022-08-30T16:06:53.211Z,99840.53
2022-08-30T16:09:21.697Z,99835.78
2022-08-30T16:11:49.342Z,99837.06
2022-08-30T16:14:16.779Z,99834.16
2022-08-30T16:16:46.207Z,99833.81
2022-08-30T16:19:13.903Z,99828.19
2022-08-30T16:21:41.985Z,99823.69
2022-08-30T16:24:10.399Z,99830.63
2022-08-30T16:26:38.462Z,99826.22
2022-08-30T16:29:07.365Z,99827.59
2022-08-30T16:31:37.007Z,99827.72
2022-08-30T16:34:05.059Z,99831.63
2022-08-30T16:36:33.212Z,99832.72
2022-08-30T16:39:00.911Z,99835.16
2022-08-30T16:41:28.774Z,99829.88
2022-08-30T16:43:56.432Z,99830.72
2022-08-30T16:46:27.236Z,99834.47
2022-08-30T16:48:58.915Z,99832.31
2022-08-30T16:51:27.944Z,99836.88
2022-08-30T16:53:58.106Z,99830.06
2022-08-30T16:56:27.226Z,99829.59
2022-08-30T16:59:01.091Z,99836.00
2022-08-30T17:01:31.773Z,99836.66
2022-08-30T17:03:59.740Z,99835.50
2022-08-30T17:06:27.203Z,99840.87
2022-08-30T17:08:56.332Z,99835.06
2022-08-30T17:11:24.577Z,99840.63
2022-08-30T17:13:52.519Z,99844.53
2022-08-30T17:16:22.574Z,99850.47
2022-08-30T17:19:00.894Z,99846.72
2022-08-30T17:21:29.366Z,99856.31
2022-08-30T17:24:01.835Z,99858.00
2022-08-30T17:26:31.938Z,99858.13
2022-08-30T17:28:59.366Z,99854.38
2022-08-30T17:31:30.629Z,99854.91
2022-08-30T17:34:03.570Z,99860.72
2022-08-30T17:36:35.176Z,99857.03
2022-08-30T17:39:09.380Z,99858.69
2022-08-30T17:44:32.744Z,99866.66
2022-08-30T17:47:00.547Z,99876.22
2022-08-30T17:49:29.595Z,99875.47
2022-08-30T17:51:58.535Z,99888.13
2022-08-30T17:54:27.609Z,99890.25
2022-08-30T17:56:55.537Z,99889.00
2022-08-30T17:59:25.614Z,99893.19
2022-08-30T18:01:54.525Z,99897.41
2022-08-30T18:04:24.844Z,99900.50
2022-08-30T18:06:53.323Z,99900.94
2022-08-30T18:09:21.046Z,99906.16
2022-08-30T18:11:48.750Z,99908.50
2022-08-30T18:14:16.464Z,99906.16
2022-08-30T18:16:49.821Z,99906.88
2022-08-30T18:19:23.893Z,99907.59
2022-08-30T18:21:52.023Z,99907.38
2022-08-30T18:24:19.503Z,99913.91
2022-08-30T18:26:47.140Z,99919.13
2022-08-30T18:29:14.802Z,99916.94
2022-08-30T18:31:53.643Z,99921.62
2022-08-30T18:34:20.997Z,99923.19
2022-08-30T18:36:49.158Z,99933.31
2022-08-30T18:39:16.786Z,99935.44
2022-08-30T18:41:44.263Z,99928.78
2022-08-30T18:44:27.330Z,99931.34
2022-08-30T18:46:57.231Z,99939.00
2022-08-30T18:49:26.220Z,99937.47
2022-08-30T18:51:53.632Z,99940.44
2022-08-30T18:54:21.240Z,99945.91
2022-08-30T18:56:48.964Z,99941.59
2022-08-30T18:59:17.264Z,99932.94
2022-08-30T19:01:46.562Z,99935.22
2022-08-30T19:04:29.490Z,99930.00
2022-08-30T19:07:07.624Z,99941.78
2022-08-30T19:09:35.805Z,99938.66
2022-08-30T19:12:05.173Z,99944.19
2022-08-30T19:14:36.869Z,99948.13
2022-08-30T19:19:52.607Z,99939.34
2022-08-30T19:22:22.174Z,99943.06
2022-08-30T19:24:51.367Z,99942.69
2022-08-30T19:27:23.721Z,99939.75
2022-08-30T19:30:11.099Z,99931.34
2022-08-30T19:32:38.599Z,99943.28
2022-08-30T19:35:07.039Z,99941.91
2022-08-30T19:37:35.046Z,99944.28
2022-08-30T19:40:05.188Z,99944.62
2022-08-30T19:42:32.870Z,99941.22
2022-08-30T19:45:00.348Z,99945.59
2022-08-30T19:47:27.751Z,99940.53
2022-08-30T19:49:55.362Z,99939.47
2022-08-30T19:52:23.101Z,99937.47
2022-08-30T19:54:50.547Z,99940.25
2022-08-30T19:57:18.168Z,99935.28
2022-08-30T19:59:45.641Z,99937.78
2022-08-30T20:02:13.717Z,99946.09
2022-08-30T20:04:41.468Z,99944.22
2022-08-30T20:07:10.286Z,99951.16
2022-08-30T20:09:38.033Z,99949.47
2022-08-30T20:12:05.751Z,99946.81
2022-08-30T20:14:33.111Z,99949.91
2022-08-30T20:17:02.338Z,99948.28
2022-08-30T20:19:30.460Z,99950.84
2022-08-30T20:22:07.094Z,99949.16
2022-08-30T20:24:24.179Z,99867.41
2022-08-30T20:24:32.330Z,99943.16
2022-08-30T20:27:08.958Z,99935.09
2022-08-30T20:29:37.861Z,99931.91
2022-08-30T20:32:05.634Z,99922.03
2022-08-30T20:34:33.640Z,99926.75
2022-08-30T20:37:01.244Z,99925.84
2022-08-30T20:39:28.606Z,99921.81
2022-08-30T20:41:56.002Z,99927.13
2022-08-30T20:44:23.888Z,99915.72
2022-08-30T20:46:51.217Z,99920.53
2022-08-30T20:49:20.284Z,99915.41
2022-08-30T20:51:52.821Z,99929.66
2022-08-30T20:54:21.800Z,99919.75
2022-08-30T20:56:50.188Z,99921.34
2022-08-30T20:59:17.795Z,99926.16
2022-08-30T21:01:45.151Z,99922.47
2022-08-30T21:04:13.249Z,99926.25
2022-08-30T21:06:40.577Z,99919.31
2022-08-30T21:09:08.719Z,99917.59
2022-08-30T21:11:37.546Z,99923.75
2022-08-30T21:14:05.223Z,99925.66
2022-08-30T21:16:32.596Z,99923.22
2022-08-30T21:19:00.443Z,99928.66
2022-08-30T21:21:30.307Z,99925.47
2022-08-30T21:24:00.776Z,99932.69
2022-08-30T21:26:28.608Z,99919.69
2022-08-30T21:28:56.015Z,99926.22
2022-08-30T21:31:26.238Z,99920.72
2022-08-30T21:33:54.785Z,99933.78
2022-08-30T21:36:42.120Z,99931.78
2022-08-30T21:39:10.523Z,99944.66
2022-08-30T21:41:38.823Z,99936.06
2022-08-30T21:44:09.522Z,99942.59
2022-08-30T21:46:37.494Z,99942.25
2022-08-30T21:49:07.358Z,99946.09
2022-08-30T21:51:37.975Z,99946.81
2022-08-30T21:54:08.539Z,99943.69
2022-08-30T21:56:40.538Z,99952.72
2022-08-30T21:59:08.662Z,99942.00
2022-08-30T22:01:37.703Z,99946.50
2022-08-30T22:04:07.501Z,99947.37
2022-08-30T22:06:36.631Z,99939.19
2022-08-30T22:09:08.937Z,99950.19
2022-08-30T22:11:37.355Z,99941.38
2022-08-30T22:14:05.834Z,99942.56
2022-08-30T22:16:33.930Z,99938.44
2022-08-30T22:19:02.041Z,99940.09
2022-08-30T22:21:31.539Z,99941.94
2022-08-30T22:23:59.028Z,99945.50
2022-08-30T22:26:27.056Z,99941.81
2022-08-30T22:28:54.740Z,99939.78
2022-08-30T22:31:23.026Z,99937.84
2022-08-30T22:33:52.120Z,99936.19
2022-08-30T22:36:32.944Z,99931.19
2022-08-30T22:39:02.025Z,99925.09
2022-08-30T22:41:32.710Z,99927.09
2022-08-30T22:44:00.086Z,99930.19
2022-08-30T22:46:33.613Z,99921.00
2022-08-30T22:49:04.260Z,99921.53
2022-08-30T22:51:32.227Z,99913.56
2022-08-30T22:54:00.794Z,99917.16
2022-08-30T22:56:28.679Z,99905.91
2022-08-30T22:58:56.875Z,99909.63
2022-08-30T23:01:37.061Z,99908.50
2022-08-30T23:04:06.875Z,99910.78
2022-08-30T23:06:34.691Z,99912.47
2022-08-30T23:09:02.469Z,99901.94
2022-08-30T23:11:31.820Z,99903.50
2022-08-30T23:14:02.264Z,99902.47
2022-08-30T23:16:30.039Z,99908.03
2022-08-30T23:18:57.448Z,99913.66
2022-08-30T23:21:27.567Z,99901.03
2022-08-30T23:24:14.706Z,99915.59
2022-08-30T23:27:01.658Z,99906.38
2022-08-30T23:29:49.908Z,99917.59
2022-08-30T23:32:36.343Z,99911.78
2022-08-30T23:35:29.017Z,99911.16
2022-08-30T23:38:17.889Z,99908.28
2022-08-30T23:41:04.226Z,99902.72
2022-08-30T23:43:50.120Z,99900.16
2022-08-30T23:46:36.282Z,99906.34
2022-08-30T23:49:22.731Z,99903.97
2022-08-30T23:52:08.815Z,99907.75
2022-08-30T23:54:57.153Z,99912.09
2022-08-30T23:57:44.978Z,99904.22
